PTSA Airport Information

Runway Information
Runway 05 Length 5750 ft width 150 ft
Elevation 10 ft Threshold ft Heading 56
Runway 23 Length 5750 ft Width 150 ft
Elevation 11 ft Threshold ft Heading 236
Airport Frequencies
Type CTAF Name CTAF Frequency 123.6 MHZ
Type RDO Name RDO Frequency 123.6 MHZ
Airport Navaids
Type NDB-DME Name Kosrae Frequency 393 KHZ
Airport Weather Information & NOTAM
ADDS - METARS form results

(0709 UTC 31 January 2023)
Data provider http://aviationweather.gov/metar/data/
 
Forecast for: PTSA (KOSRAE ISLAND , FM)
Text: PTSA 310135Z 3102/3124 07011KT P6SM VCSH BKN020 BKN130
Forecast period: 0200 UTC 31 January 2023 to 0000 UTC 01 February 2023
Forecast type: FROM: standard forecast or significant change
Winds: from the ENE (70 degrees) at 13 MPH (11 knots; 5.7 m/s)
Visibility: 6 or more miles (10+ km)
Ceiling: 2000 feet AGL
Clouds: broken clouds at 2000 feet AGL
broken clouds at 13000 feet AGL
Weather: VCSH  (showers in vicinity)